sensor_id;sensor_type;location;lat;lon;timestamp;pressure;altitude;pressure_sealevel;temperature;humidity
63654;BME280;49809;47.418;19.080;2023-04-25T00:05:28;99430.97;;;11.42;96.27
63654;BME280;49809;47.418;19.080;2023-04-25T00:14:09;99430.69;;;11.43;94.45
63654;BME280;49809;47.418;19.080;2023-04-25T00:18:20;99426.22;;;11.39;92.94
63654;BME280;49809;47.418;19.080;2023-04-25T00:21:49;99428.38;;;11.37;92.48
63654;BME280;49809;47.418;19.080;2023-04-25T00:37:37;99407.09;;;11.47;89.51
63654;BME280;49809;47.418;19.080;2023-04-25T00:41:12;99401.00;;;11.46;89.75
63654;BME280;49809;47.418;19.080;2023-04-25T00:57:04;99410.56;;;11.42;90.07
63654;BME280;49809;47.418;19.080;2023-04-25T01:00:57;99393.50;;;11.53;90.01
63654;BME280;49809;47.418;19.080;2023-04-25T01:04:52;99404.94;;;11.49;90.41
63654;BME280;49809;47.418;19.080;2023-04-25T01:07:59;99402.06;;;11.45;90.99
63654;BME280;49809;47.418;19.080;2023-04-25T01:11:54;99392.22;;;11.51;89.08
63654;BME280;49809;47.418;19.080;2023-04-25T01:15:53;99398.31;;;11.51;90.40
63654;BME280;49809;47.418;19.080;2023-04-25T01:19:35;99409.94;;;11.55;89.14
63654;BME280;49809;47.418;19.080;2023-04-25T01:23:12;99399.84;;;11.52;88.23
63654;BME280;49809;47.418;19.080;2023-04-25T01:27:15;99398.31;;;11.51;87.77
63654;BME280;49809;47.418;19.080;2023-04-25T01:31:05;99392.44;;;11.54;88.92
63654;BME280;49809;47.418;19.080;2023-04-25T01:38:46;99385.63;;;11.43;88.01
63654;BME280;49809;47.418;19.080;2023-04-25T01:42:21;99386.34;;;11.54;86.80
63654;BME280;49809;47.418;19.080;2023-04-25T01:46:14;99385.84;;;11.52;87.23
63654;BME280;49809;47.418;19.080;2023-04-25T01:54:11;99387.94;;;11.55;87.39
63654;BME280;49809;47.418;19.080;2023-04-25T01:58:02;99383.50;;;11.45;88.02
63654;BME280;49809;47.418;19.080;2023-04-25T02:01:56;99384.75;;;11.53;86.91
63654;BME280;49809;47.418;19.080;2023-04-25T02:05:49;99381.91;;;11.44;87.17
63654;BME280;49809;47.418;19.080;2023-04-25T02:09:54;99392.28;;;11.41;87.35
63654;BME280;49809;47.418;19.080;2023-04-25T02:13:22;99394.09;;;11.45;87.48
63654;BME280;49809;47.418;19.080;2023-04-25T02:17:30;99388.91;;;11.35;87.60
63654;BME280;49809;47.418;19.080;2023-04-25T02:21:38;99383.06;;;11.33;87.75
63654;BME280;49809;47.418;19.080;2023-04-25T02:25:10;99398.25;;;11.27;88.01
63654;BME280;49809;47.418;19.080;2023-04-25T02:29:07;99385.50;;;11.29;87.44
63654;BME280;49809;47.418;19.080;2023-04-25T02:33:05;99392.06;;;11.37;87.07
63654;BME280;49809;47.418;19.080;2023-04-25T02:37:30;99404.88;;;11.25;87.12
63654;BME280;49809;47.418;19.080;2023-04-25T02:41:11;99396.66;;;11.26;86.69
63654;BME280;49809;47.418;19.080;2023-04-25T02:45:05;99386.94;;;11.17;86.98
63654;BME280;49809;47.418;19.080;2023-04-25T02:48:43;99390.87;;;11.19;86.35
63654;BME280;49809;47.418;19.080;2023-04-25T02:52:34;99381.94;;;11.10;87.54
63654;BME280;49809;47.418;19.080;2023-04-25T02:56:34;99379.78;;;11.17;86.60
63654;BME280;49809;47.418;19.080;2023-04-25T03:00:18;99376.94;;;11.04;85.44
63654;BME280;49809;47.418;19.080;2023-04-25T03:04:40;99378.47;;;11.15;85.42
63654;BME280;49809;47.418;19.080;2023-04-25T03:08:13;99380.34;;;11.09;86.15
63654;BME280;49809;47.418;19.080;2023-04-25T03:12:14;99382.81;;;11.01;84.60
63654;BME280;49809;47.418;19.080;2023-04-25T03:16:06;99376.94;;;11.04;85.45
63654;BME280;49809;47.418;19.080;2023-04-25T03:19:57;99359.00;;;10.96;85.37
63654;BME280;49809;47.418;19.080;2023-04-25T03:23:42;99370.09;;;11.03;86.57
63654;BME280;49809;47.418;19.080;2023-04-25T03:27:37;99365.97;;;10.86;86.41
63654;BME280;49809;47.418;19.080;2023-04-25T03:31:27;99366.97;;;10.90;86.27
63654;BME280;49809;47.418;19.080;2023-04-25T03:39:57;99371.03;;;10.83;84.82
63654;BME280;49809;47.418;19.080;2023-04-25T03:43:54;99369.16;;;10.83;84.49
63654;BME280;49809;47.418;19.080;2023-04-25T03:48:00;99378.13;;;10.87;84.43
63654;BME280;49809;47.418;19.080;2023-04-25T03:51:43;99383.44;;;10.87;84.18
63654;BME280;49809;47.418;19.080;2023-04-25T03:55:22;99393.06;;;10.73;85.64
63654;BME280;49809;47.418;19.080;2023-04-25T04:10:38;99397.56;;;10.68;85.48
63654;BME280;49809;47.418;19.080;2023-04-25T04:14:16;99403.09;;;10.71;85.12
63654;BME280;49809;47.418;19.080;2023-04-25T04:18:11;99399.91;;;10.79;85.57
63654;BME280;49809;47.418;19.080;2023-04-25T04:22:00;99406.91;;;10.55;85.93
63654;BME280;49809;47.418;19.080;2023-04-25T04:26:03;99408.22;;;10.58;87.83
63654;BME280;49809;47.418;19.080;2023-04-25T04:29:57;99407.16;;;10.59;85.70
63654;BME280;49809;47.418;19.080;2023-04-25T04:33:50;99413.31;;;10.44;87.10
63654;BME280;49809;47.418;19.080;2023-04-25T04:37:58;99414.94;;;10.35;89.34
63654;BME280;49809;47.418;19.080;2023-04-25T04:41:38;99412.34;;;10.20;91.16
63654;BME280;49809;47.418;19.080;2023-04-25T04:45:09;99415.50;;;10.17;92.05
63654;BME280;49809;47.418;19.080;2023-04-25T04:49:04;99416.03;;;10.24;93.68
63654;BME280;49809;47.418;19.080;2023-04-25T04:52:58;99412.34;;;10.04;94.79
63654;BME280;49809;47.418;19.080;2023-04-25T04:56:35;99417.66;;;10.04;96.55
63654;BME280;49809;47.418;19.080;2023-04-25T05:55:15;99421.41;;;9.02;100.00
63654;BME280;49809;47.418;19.080;2023-04-25T06:07:05;99428.28;;;8.98;100.00
63654;BME280;49809;47.418;19.080;2023-04-25T06:10:57;99430.37;;;9.01;100.00
63654;BME280;49809;47.418;19.080;2023-04-25T06:48:17;99446.47;;;10.16;100.00
63654;BME280;49809;47.418;19.080;2023-04-25T06:51:42;99449.12;;;10.21;100.00
63654;BME280;49809;47.418;19.080;2023-04-25T06:55:46;99454.63;;;10.30;100.00
63654;BME280;49809;47.418;19.080;2023-04-25T06:59:53;99447.78;;;10.83;100.00
63654;BME280;49809;47.418;19.080;2023-04-25T07:03:32;99450.91;;;10.90;100.00
63654;BME280;49809;47.418;19.080;2023-04-25T07:07:25;99457.50;;;10.98;100.00
63654;BME280;49809;47.418;19.080;2023-04-25T07:11:37;99455.44;;;10.84;100.00
63654;BME280;49809;47.418;19.080;2023-04-25T07:15:06;99455.41;;;10.89;100.00
63654;BME280;49809;47.418;19.080;2023-04-25T07:23:11;99452.75;;;10.95;100.00
63654;BME280;49809;47.418;19.080;2023-04-25T07:30:47;99447.03;;;11.89;96.26
63654;BME280;49809;47.418;19.080;2023-04-25T07:46:09;99451.91;;;12.53;88.92
63654;BME280;49809;47.418;19.080;2023-04-25T07:49:54;99460.09;;;12.94;89.75
63654;BME280;49809;47.418;19.080;2023-04-25T07:53:09;99469.72;;;12.90;86.34
63654;BME280;49809;47.418;19.080;2023-04-25T07:56:36;99459.91;;;12.48;86.30
63654;BME280;49809;47.418;19.080;2023-04-25T08:00:28;99453.94;;;12.99;88.67
63654;BME280;49809;47.418;19.080;2023-04-25T08:03:39;99451.00;;;13.38;81.21
63654;BME280;49809;47.418;19.080;2023-04-25T08:06:49;99437.75;;;14.11;82.38
63654;BME280;49809;47.418;19.080;2023-04-25T08:10:09;99449.72;;;14.27;77.41
63654;BME280;49809;47.418;19.080;2023-04-25T08:13:53;99450.31;;;14.65;77.50
63654;BME280;49809;47.418;19.080;2023-04-25T08:16:58;99457.66;;;14.82;75.29
63654;BME280;49809;47.418;19.080;2023-04-25T08:20:37;99450.38;;;14.74;73.05
63654;BME280;49809;47.418;19.080;2023-04-25T08:24:42;99456.03;;;14.45;73.38
63654;BME280;49809;47.418;19.080;2023-04-25T08:27:48;99451.34;;;13.96;75.85
63654;BME280;49809;47.418;19.080;2023-04-25T08:31:19;99444.94;;;14.79;72.28
63654;BME280;49809;47.418;19.080;2023-04-25T08:34:50;99451.94;;;13.79;75.02
63654;BME280;49809;47.418;19.080;2023-04-25T08:42:27;99458.06;;;14.34;74.01
63654;BME280;49809;47.418;19.080;2023-04-25T08:45:41;99459.66;;;14.35;70.66
63654;BME280;49809;47.418;19.080;2023-04-25T08:49:05;99470.00;;;14.23;70.04
63654;BME280;49809;47.418;19.080;2023-04-25T08:52:13;99470.50;;;14.25;69.05
63654;BME280;49809;47.418;19.080;2023-04-25T08:55:39;99465.00;;;13.76;71.92
63654;BME280;49809;47.418;19.080;2023-04-25T08:59:30;99476.69;;;14.07;70.31
63654;BME280;49809;47.418;19.080;2023-04-25T09:02:36;99472.66;;;14.23;70.33
63654;BME280;49809;47.418;19.080;2023-04-25T09:05:44;99464.22;;;14.49;69.99
63654;BME280;49809;47.418;19.080;2023-04-25T09:09:31;99464.75;;;15.00;68.72
63654;BME280;49809;47.418;19.080;2023-04-25T09:12:36;99472.78;;;14.32;68.94
63654;BME280;49809;47.418;19.080;2023-04-25T09:15:53;99474.56;;;14.64;68.92
63654;BME280;49809;47.418;19.080;2023-04-25T09:18:58;99477.53;;;14.76;68.75
63654;BME280;49809;47.418;19.080;2023-04-25T09:22:45;99467.66;;;15.12;67.81
63654;BME280;49809;47.418;19.080;2023-04-25T09:25:53;99473.53;;;15.59;67.27
63654;BME280;49809;47.418;19.080;2023-04-25T09:29:06;99466.56;;;16.02;65.46
63654;BME280;49809;47.418;19.080;2023-04-25T09:32:32;99467.19;;;16.39;61.81
63654;BME280;49809;47.418;19.080;2023-04-25T09:35:40;99470.84;;;15.59;62.82
63654;BME280;49809;47.418;19.080;2023-04-25T09:38:46;99457.84;;;15.88;62.20
63654;BME280;49809;47.418;19.080;2023-04-25T09:41:56;99465.56;;;16.21;60.92
63654;BME280;49809;47.418;19.080;2023-04-25T09:45:13;99463.88;;;16.42;62.62
63654;BME280;49809;47.418;19.080;2023-04-25T09:48:25;99462.91;;;16.29;61.21
63654;BME280;49809;47.418;19.080;2023-04-25T09:51:29;99465.81;;;16.11;62.75
63654;BME280;49809;47.418;19.080;2023-04-25T09:54:59;99461.81;;;15.91;63.72
63654;BME280;49809;47.418;19.080;2023-04-25T09:58:29;99460.31;;;16.07;61.96
63654;BME280;49809;47.418;19.080;2023-04-25T10:01:39;99457.88;;;16.28;62.75
63654;BME280;49809;47.418;19.080;2023-04-25T10:05:01;99465.28;;;16.79;59.50
63654;BME280;49809;47.418;19.080;2023-04-25T10:08:08;99464.00;;;16.59;59.86
63654;BME280;49809;47.418;19.080;2023-04-25T10:11:32;99460.22;;;16.21;59.98
63654;BME280;49809;47.418;19.080;2023-04-25T10:15:06;99457.31;;;16.08;61.80
63654;BME280;49809;47.418;19.080;2023-04-25T10:18:33;99463.47;;;15.34;63.02
63654;BME280;49809;47.418;19.080;2023-04-25T10:22:29;99460.97;;;15.01;63.26
63654;BME280;49809;47.418;19.080;2023-04-25T10:25:55;99457.47;;;14.78;64.37
63654;BME280;49809;47.418;19.080;2023-04-25T10:29:03;99454.53;;;14.80;64.42
63654;BME280;49809;47.418;19.080;2023-04-25T10:32:08;99453.16;;;14.69;65.08
63654;BME280;49809;47.418;19.080;2023-04-25T10:35:33;99459.06;;;14.79;64.09
63654;BME280;49809;47.418;19.080;2023-04-25T10:38:41;99459.47;;;14.73;64.88
63654;BME280;49809;47.418;19.080;2023-04-25T10:42:04;99453.59;;;15.34;62.44
63654;BME280;49809;47.418;19.080;2023-04-25T10:45:51;99458.19;;;15.64;62.83
63654;BME280;49809;47.418;19.080;2023-04-25T10:49:30;99457.12;;;16.36;60.89
63654;BME280;49809;47.418;19.080;2023-04-25T10:52:39;99457.94;;;16.05;61.49
63654;BME280;49809;47.418;19.080;2023-04-25T10:56:19;99465.44;;;16.26;58.87
63654;BME280;49809;47.418;19.080;2023-04-25T11:00:15;99463.84;;;16.64;56.22
63654;BME280;49809;47.418;19.080;2023-04-25T11:03:21;99467.31;;;16.34;58.37
63654;BME280;49809;47.418;19.080;2023-04-25T11:10:14;99469.53;;;16.88;55.99
63654;BME280;49809;47.418;19.080;2023-04-25T11:13:20;99466.38;;;16.86;55.88
63654;BME280;49809;47.418;19.080;2023-04-25T11:16:24;99458.84;;;17.74;53.07
63654;BME280;49809;47.418;19.080;2023-04-25T11:20:02;99460.97;;;18.36;52.82
63654;BME280;49809;47.418;19.080;2023-04-25T11:23:10;99468.37;;;17.93;51.29
63654;BME280;49809;47.418;19.080;2023-04-25T11:27:00;99467.72;;;18.42;50.94
63654;BME280;49809;47.418;19.080;2023-04-25T11:30:39;99479.19;;;18.51;49.09
63654;BME280;49809;47.418;19.080;2023-04-25T11:34:03;99471.84;;;19.73;45.25
63654;BME280;49809;47.418;19.080;2023-04-25T11:37:06;99466.69;;;20.73;44.44
63654;BME280;49809;47.418;19.080;2023-04-25T11:40:11;99470.50;;;20.85;40.79
63654;BME280;49809;47.418;19.080;2023-04-25T11:43:17;99480.47;;;19.25;45.35
63654;BME280;49809;47.418;19.080;2023-04-25T11:46:23;99479.03;;;18.56;45.89
63654;BME280;49809;47.418;19.080;2023-04-25T11:49:48;99482.63;;;16.99;50.32
63654;BME280;49809;47.418;19.080;2023-04-25T11:52:56;99488.13;;;17.28;50.01
63654;BME280;49809;47.418;19.080;2023-04-25T11:56:01;99489.38;;;17.22;51.67
63654;BME280;49809;47.418;19.080;2023-04-25T11:59:05;99494.25;;;16.94;49.31
63654;BME280;49809;47.418;19.080;2023-04-25T12:02:25;99503.03;;;16.94;51.63
63654;BME280;49809;47.418;19.080;2023-04-25T12:05:31;99495.19;;;17.58;49.17
63654;BME280;49809;47.418;19.080;2023-04-25T12:08:59;99502.66;;;16.70;50.41
63654;BME280;49809;47.418;19.080;2023-04-25T12:12:04;99498.19;;;17.57;48.69
63654;BME280;49809;47.418;19.080;2023-04-25T12:15:41;99502.91;;;17.51;49.22
63654;BME280;49809;47.418;19.080;2023-04-25T12:19:07;99492.53;;;18.69;46.54
63654;BME280;49809;47.418;19.080;2023-04-25T12:22:31;99481.00;;;20.29;43.14
63654;BME280;49809;47.418;19.080;2023-04-25T12:26:14;99485.53;;;20.49;41.02
63654;BME280;49809;47.418;19.080;2023-04-25T12:29:23;99491.06;;;19.63;44.26
63654;BME280;49809;47.418;19.080;2023-04-25T12:32:32;99489.75;;;19.27;42.55
63654;BME280;49809;47.418;19.080;2023-04-25T12:35:35;99503.94;;;18.10;46.65
63654;BME280;49809;47.418;19.080;2023-04-25T12:39:24;99492.81;;;17.83;46.28
63654;BME280;49809;47.418;19.080;2023-04-25T12:42:48;99486.09;;;17.76;44.45
63654;BME280;49809;47.418;19.080;2023-04-25T12:45:56;99477.09;;;16.86;46.61
63654;BME280;49809;47.418;19.080;2023-04-25T12:49:19;99479.62;;;17.26;46.42
63654;BME280;49809;47.418;19.080;2023-04-25T12:56:56;99471.94;;;17.33;42.05
63654;BME280;49809;47.418;19.080;2023-04-25T13:00:01;99473.66;;;17.29;43.07
63654;BME280;49809;47.418;19.080;2023-04-25T13:03:38;99475.53;;;17.11;45.71
63654;BME280;49809;47.418;19.080;2023-04-25T13:07:43;99464.81;;;16.85;44.01
63654;BME280;49809;47.418;19.080;2023-04-25T13:11:05;99472.41;;;16.44;43.48
63654;BME280;49809;47.418;19.080;2023-04-25T13:14:25;99468.63;;;16.45;43.17
63654;BME280;49809;47.418;19.080;2023-04-25T13:17:45;99468.53;;;16.59;43.55
63654;BME280;49809;47.418;19.080;2023-04-25T13:20:49;99468.31;;;16.46;45.28
63654;BME280;49809;47.418;19.080;2023-04-25T13:24:13;99473.59;;;16.60;44.58
63654;BME280;49809;47.418;19.080;2023-04-25T13:27:17;99459.59;;;16.63;45.20
63654;BME280;49809;47.418;19.080;2023-04-25T13:30:41;99453.84;;;16.39;44.63
63654;BME280;49809;47.418;19.080;2023-04-25T13:33:46;99453.69;;;16.44;45.08
63654;BME280;49809;47.418;19.080;2023-04-25T13:36:52;99457.81;;;16.50;43.42
63654;BME280;49809;47.418;19.080;2023-04-25T13:40:26;99455.59;;;16.52;42.59
63654;BME280;49809;47.418;19.080;2023-04-25T13:43:32;99446.88;;;16.60;43.50
63654;BME280;49809;47.418;19.080;2023-04-25T13:46:37;99445.84;;;16.56;43.56
63654;BME280;49809;47.418;19.080;2023-04-25T13:49:57;99447.03;;;16.64;43.95
63654;BME280;49809;47.418;19.080;2023-04-25T13:53:09;99443.69;;;16.58;41.24
63654;BME280;49809;47.418;19.080;2023-04-25T13:56:12;99436.53;;;16.36;42.59
63654;BME280;49809;47.418;19.080;2023-04-25T13:59:47;99444.03;;;16.65;43.07
63654;BME280;49809;47.418;19.080;2023-04-25T14:02:54;99439.66;;;16.21;42.01
63654;BME280;49809;47.418;19.080;2023-04-25T14:05:59;99435.00;;;16.44;43.87
63654;BME280;49809;47.418;19.080;2023-04-25T14:09:25;99443.19;;;16.56;43.57
63654;BME280;49809;47.418;19.080;2023-04-25T14:12:51;99445.34;;;16.37;44.22
63654;BME280;49809;47.418;19.080;2023-04-25T14:15:57;99432.25;;;16.27;43.72
63654;BME280;49809;47.418;19.080;2023-04-25T14:19:21;99431.09;;;16.50;43.14
63654;BME280;49809;47.418;19.080;2023-04-25T14:22:48;99425.28;;;16.57;42.36
63654;BME280;49809;47.418;19.080;2023-04-25T14:25:52;99440.06;;;16.54;43.18
63654;BME280;49809;47.418;19.080;2023-04-25T14:29:15;99447.19;;;16.67;42.27
63654;BME280;49809;47.418;19.080;2023-04-25T14:32:43;99449.81;;;16.11;41.50
63654;BME280;49809;47.418;19.080;2023-04-25T14:35:48;99445.00;;;16.21;42.40
63654;BME280;49809;47.418;19.080;2023-04-25T14:39:12;99445.28;;;16.20;41.16
63654;BME280;49809;47.418;19.080;2023-04-25T14:42:26;99437.00;;;16.30;41.78
63654;BME280;49809;47.418;19.080;2023-04-25T14:45:34;99432.88;;;16.15;40.57
63654;BME280;49809;47.418;19.080;2023-04-25T14:48:58;99434.34;;;16.38;40.82
63654;BME280;49809;47.418;19.080;2023-04-25T14:52:25;99429.44;;;16.32;40.21
63654;BME280;49809;47.418;19.080;2023-04-25T14:55:49;99429.37;;;16.54;40.40
63654;BME280;49809;47.418;19.080;2023-04-25T14:59:12;99431.84;;;16.42;39.53
63654;BME280;49809;47.418;19.080;2023-04-25T15:02:49;99431.25;;;16.53;39.79
63654;BME280;49809;47.418;19.080;2023-04-25T15:06:13;99429.91;;;16.65;40.25
63654;BME280;49809;47.418;19.080;2023-04-25T15:09:48;99431.34;;;16.97;39.32
63654;BME280;49809;47.418;19.080;2023-04-25T15:13:11;99434.50;;;17.07;39.19
63654;BME280;49809;47.418;19.080;2023-04-25T15:16:40;99447.22;;;16.93;38.87
63654;BME280;49809;47.418;19.080;2023-04-25T15:20:13;99442.19;;;16.91;39.52
63654;BME280;49809;47.418;19.080;2023-04-25T15:23:37;99443.16;;;17.13;39.65
63654;BME280;49809;47.418;19.080;2023-04-25T15:27:02;99440.00;;;17.11;38.72
63654;BME280;49809;47.418;19.080;2023-04-25T15:30:15;99447.69;;;17.12;38.19
63654;BME280;49809;47.418;19.080;2023-04-25T15:33:38;99443.28;;;16.82;38.08
63654;BME280;49809;47.418;19.080;2023-04-25T15:37:04;99447.53;;;15.95;40.02
63654;BME280;49809;47.418;19.080;2023-04-25T15:40:26;99450.44;;;15.54;41.97
63654;BME280;49809;47.418;19.080;2023-04-25T15:44:09;99452.63;;;15.52;42.70
63654;BME280;49809;47.418;19.080;2023-04-25T15:47:39;99452.91;;;15.29;43.29
63654;BME280;49809;47.418;19.080;2023-04-25T15:50:45;99453.47;;;15.03;45.01
63654;BME280;49809;47.418;19.080;2023-04-25T15:53:57;99457.97;;;15.16;45.12
63654;BME280;49809;47.418;19.080;2023-04-25T15:57:03;99459.13;;;14.88;45.99
63654;BME280;49809;47.418;19.080;2023-04-25T16:00:28;99457.47;;;14.78;46.81
63654;BME280;49809;47.418;19.080;2023-04-25T16:03:32;99458.13;;;14.62;48.12
63654;BME280;49809;47.418;19.080;2023-04-25T16:06:58;99474.47;;;14.55;52.47
63654;BME280;49809;47.418;19.080;2023-04-25T16:10:23;99473.53;;;14.05;56.38
63654;BME280;49809;47.418;19.080;2023-04-25T16:13:30;99471.41;;;13.75;56.61
63654;BME280;49809;47.418;19.080;2023-04-25T16:16:40;99474.56;;;13.44;57.32
63654;BME280;49809;47.418;19.080;2023-04-25T16:20:25;99475.56;;;13.48;57.32
63654;BME280;49809;47.418;19.080;2023-04-25T16:23:43;99476.00;;;13.18;58.81
63654;BME280;49809;47.418;19.080;2023-04-25T16:27:47;99483.88;;;13.04;60.06
63654;BME280;49809;47.418;19.080;2023-04-25T16:30:50;99479.94;;;13.02;60.33
63654;BME280;49809;47.418;19.080;2023-04-25T16:33:54;99480.00;;;12.97;60.50
63654;BME280;49809;47.418;19.080;2023-04-25T16:36:58;99481.28;;;12.99;61.18
63654;BME280;49809;47.418;19.080;2023-04-25T16:40:21;99476.09;;;13.13;60.68
63654;BME280;49809;47.418;19.080;2023-04-25T16:43:26;99476.84;;;13.32;61.10
63654;BME280;49809;47.418;19.080;2023-04-25T16:46:33;99470.31;;;13.43;59.86
63654;BME280;49809;47.418;19.080;2023-04-25T16:49:59;99474.19;;;13.32;60.16
63654;BME280;49809;47.418;19.080;2023-04-25T16:53:23;99483.47;;;13.35;60.62
63654;BME280;49809;47.418;19.080;2023-04-25T16:56:43;99479.59;;;13.27;60.88
63654;BME280;49809;47.418;19.080;2023-04-25T16:59:51;99476.72;;;13.24;61.26
63654;BME280;49809;47.418;19.080;2023-04-25T17:03:08;99485.78;;;13.23;60.01
63654;BME280;49809;47.418;19.080;2023-04-25T17:06:31;99489.59;;;13.17;60.95
63654;BME280;49809;47.418;19.080;2023-04-25T17:09:43;99494.72;;;13.08;61.72
63654;BME280;49809;47.418;19.080;2023-04-25T17:12:51;99497.44;;;13.03;60.98
63654;BME280;49809;47.418;19.080;2023-04-25T17:16:37;99503.47;;;12.90;62.12
63654;BME280;49809;47.418;19.080;2023-04-25T17:20:16;99508.25;;;12.88;62.82
63654;BME280;49809;47.418;19.080;2023-04-25T17:23:54;99509.69;;;12.80;62.57
63654;BME280;49809;47.418;19.080;2023-04-25T17:27:41;99515.66;;;12.72;63.10
63654;BME280;49809;47.418;19.080;2023-04-25T17:31:08;99509.78;;;12.51;64.35
63654;BME280;49809;47.418;19.080;2023-04-25T17:42:41;99536.78;;;12.30;64.94
63654;BME280;49809;47.418;19.080;2023-04-25T17:46:08;99539.53;;;12.25;64.91
63654;BME280;49809;47.418;19.080;2023-04-25T17:49:43;99543.56;;;12.17;64.63
63654;BME280;49809;47.418;19.080;2023-04-25T17:53:03;99539.41;;;12.06;65.29
63654;BME280;49809;47.418;19.080;2023-04-25T17:56:49;99543.19;;;12.00;65.82
63654;BME280;49809;47.418;19.080;2023-04-25T18:00:14;99542.50;;;11.89;66.28
63654;BME280;49809;47.418;19.080;2023-04-25T18:03:38;99545.78;;;11.71;67.61
63654;BME280;49809;47.418;19.080;2023-04-25T18:06:48;99556.97;;;11.63;69.16
63654;BME280;49809;47.418;19.080;2023-04-25T18:10:16;99556.72;;;11.59;69.88
63654;BME280;49809;47.418;19.080;2023-04-25T18:13:46;99571.56;;;11.60;70.47
63654;BME280;49809;47.418;19.080;2023-04-25T18:21:15;99575.91;;;11.46;72.00
63654;BME280;49809;47.418;19.080;2023-04-25T18:24:42;99586.25;;;11.38;73.04
63654;BME280;49809;47.418;19.080;2023-04-25T18:28:20;99586.56;;;11.36;73.22
63654;BME280;49809;47.418;19.080;2023-04-25T18:31:58;99593.75;;;11.25;73.89
63654;BME280;49809;47.418;19.080;2023-04-25T18:35:19;99598.81;;;11.22;74.05
63654;BME280;49809;47.418;19.080;2023-04-25T18:42:34;99615.56;;;11.07;75.31
63654;BME280;49809;47.418;19.080;2023-04-25T18:46:13;99608.12;;;11.04;75.46
63654;BME280;49809;47.418;19.080;2023-04-25T18:49:47;99613.44;;;11.04;74.64
63654;BME280;49809;47.418;19.080;2023-04-25T18:53:30;99618.75;;;10.94;75.49
63654;BME280;49809;47.418;19.080;2023-04-25T18:57:07;99619.59;;;10.84;75.59
63654;BME280;49809;47.418;19.080;2023-04-25T19:00:55;99627.59;;;10.74;75.65
63654;BME280;49809;47.418;19.080;2023-04-25T19:04:31;99632.06;;;10.74;74.70
63654;BME280;49809;47.418;19.080;2023-04-25T19:08:11;99619.13;;;10.62;74.81
63654;BME280;49809;47.418;19.080;2023-04-25T19:11:28;99635.53;;;10.59;74.45
63654;BME280;49809;47.418;19.080;2023-04-25T19:15:07;99629.19;;;10.55;73.87
63654;BME280;49809;47.418;19.080;2023-04-25T19:18:44;99630.00;;;10.45;75.33
63654;BME280;49809;47.418;19.080;2023-04-25T19:22:30;99630.78;;;10.41;74.69
63654;BME280;49809;47.418;19.080;2023-04-25T19:25:51;99628.41;;;10.44;74.16
63654;BME280;49809;47.418;19.080;2023-04-25T19:29:33;99632.91;;;10.34;75.48
63654;BME280;49809;47.418;19.080;2023-04-25T19:33:18;99635.81;;;10.42;73.38
63654;BME280;49809;47.418;19.080;2023-04-25T19:37:12;99628.13;;;10.41;74.42
63654;BME280;49809;47.418;19.080;2023-04-25T19:40:34;99635.00;;;10.52;73.27
63654;BME280;49809;47.418;19.080;2023-04-25T19:44:14;99627.06;;;10.47;74.05
63654;BME280;49809;47.418;19.080;2023-04-25T19:51:49;99635.00;;;10.42;74.01
63654;BME280;49809;47.418;19.080;2023-04-25T19:55:45;99630.78;;;10.51;73.77
63654;BME280;49809;47.418;19.080;2023-04-25T19:59:13;99637.66;;;10.42;74.58
63654;BME280;49809;47.418;19.080;2023-04-25T20:03:02;99636.59;;;10.28;75.35
63654;BME280;49809;47.418;19.080;2023-04-25T20:06:33;99637.41;;;10.23;75.85
63654;BME280;49809;47.418;19.080;2023-04-25T20:09:59;99646.94;;;10.19;76.10
63654;BME280;49809;47.418;19.080;2023-04-25T20:13:18;99639.78;;;10.20;75.48
63654;BME280;49809;47.418;19.080;2023-04-25T20:16:54;99639.78;;;10.25;74.90
63654;BME280;49809;47.418;19.080;2023-04-25T20:20:34;99639.53;;;10.21;74.65
63654;BME280;49809;47.418;19.080;2023-04-25T20:24:15;99646.41;;;10.32;73.63
63654;BME280;49809;47.418;19.080;2023-04-25T20:27:35;99645.59;;;10.22;73.94
63654;BME280;49809;47.418;19.080;2023-04-25T20:30:58;99649.53;;;10.14;74.73
63654;BME280;49809;47.418;19.080;2023-04-25T20:34:36;99643.19;;;10.05;74.67
63654;BME280;49809;47.418;19.080;2023-04-25T20:38:14;99651.66;;;10.02;75.19
63654;BME280;49809;47.418;19.080;2023-04-25T20:41:59;99659.28;;;9.83;75.78
63654;BME280;49809;47.418;19.080;2023-04-25T20:45:30;99666.63;;;9.61;77.80
63654;BME280;49809;47.418;19.080;2023-04-25T20:49:13;99659.97;;;9.43;78.99
63654;BME280;49809;47.418;19.080;2023-04-25T20:52:54;99669.12;;;9.26;80.84
63654;BME280;49809;47.418;19.080;2023-04-25T20:56:22;99670.44;;;9.18;80.40
63654;BME280;49809;47.418;19.080;2023-04-25T20:59:51;99676.47;;;9.13;80.61
63654;BME280;49809;47.418;19.080;2023-04-25T21:07:28;99692.44;;;8.92;82.38
63654;BME280;49809;47.418;19.080;2023-04-25T21:10:59;99700.28;;;8.82;82.80
63654;BME280;49809;47.418;19.080;2023-04-25T21:14:23;99695.47;;;8.68;83.95
63654;BME280;49809;47.418;19.080;2023-04-25T21:21:48;99700.81;;;8.42;85.23
63654;BME280;49809;47.418;19.080;2023-04-25T21:25:06;99707.31;;;8.34;86.04
63654;BME280;49809;47.418;19.080;2023-04-25T21:28:27;99709.06;;;8.28;86.73
63654;BME280;49809;47.418;19.080;2023-04-25T21:31:56;99708.50;;;8.21;87.31
63654;BME280;49809;47.418;19.080;2023-04-25T21:35:34;99713.22;;;8.19;88.37
63654;BME280;49809;47.418;19.080;2023-04-25T21:39:09;99706.56;;;8.12;88.23
63654;BME280;49809;47.418;19.080;2023-04-25T21:42:42;99710.00;;;8.12;88.47
63654;BME280;49809;47.418;19.080;2023-04-25T21:46:08;99705.06;;;7.94;88.72
63654;BME280;49809;47.418;19.080;2023-04-25T21:49:34;99707.91;;;7.87;89.65
63654;BME280;49809;47.418;19.080;2023-04-25T21:52:56;99707.09;;;8.14;88.53